Terminal Aerodrome Forecast
Issued by NWS Spokane, WA

Home | Current Version | Previous Version | Text Only | Print | Product List | Glossary On
Versions: 1 2 3 4 5 6 7 8 9 10 11 12 13 14 15 16 17 18 19 20 21 22 23 24 25 26 27 28
000
FTUS46 KOTX 272329
TAFLWS
TAF
KLWS 272329Z 2800/2824 30006KT P6SM VCTS SCT060CB BKN080
     FM280300 VRB04KT P6SM SCT060 SCT120
     FM282100 03004KT P6SM VCTS SCT060CB BKN120=

USA.gov is the U.S. government's official web portal to all federal, state and local government web resources and services.